sensor_id;sensor_type;location;lat;lon;timestamp;P1;durP1;ratioP1;P2;durP2;ratioP2
2956;SDS011;1488;51.548;7.222;2023-12-14T00:00:28;2.77;;;1.80;;
2956;SDS011;1488;51.548;7.222;2023-12-14T00:02:55;1.80;;;1.70;;
2956;SDS011;1488;51.548;7.222;2023-12-14T00:05:22;1.40;;;1.30;;
2956;SDS011;1488;51.548;7.222;2023-12-14T00:07:49;2.37;;;1.70;;
2956;SDS011;1488;51.548;7.222;2023-12-14T00:10:16;1.57;;;1.47;;
2956;SDS011;1488;51.548;7.222;2023-12-14T00:12:43;1.63;;;1.40;;
2956;SDS011;1488;51.548;7.222;2023-12-14T00:15:10;3.10;;;1.60;;
2956;SDS011;1488;51.548;7.222;2023-12-14T00:17:38;1.60;;;1.50;;
2956;SDS011;1488;51.548;7.222;2023-12-14T00:20:06;1.40;;;1.30;;
2956;SDS011;1488;51.548;7.222;2023-12-14T00:22:33;1.53;;;1.30;;
2956;SDS011;1488;51.548;7.222;2023-12-14T00:25:00;1.80;;;1.60;;
2956;SDS011;1488;51.548;7.222;2023-12-14T00:27:27;1.60;;;1.50;;
2956;SDS011;1488;51.548;7.222;2023-12-14T00:29:54;1.90;;;1.70;;
2956;SDS011;1488;51.548;7.222;2023-12-14T00:32:21;1.83;;;1.73;;
2956;SDS011;1488;51.548;7.222;2023-12-14T00:34:49;1.97;;;1.47;;
2956;SDS011;1488;51.548;7.222;2023-12-14T00:37:15;1.60;;;1.50;;
2956;SDS011;1488;51.548;7.222;2023-12-14T00:39:42;1.50;;;1.40;;
2956;SDS011;1488;51.548;7.222;2023-12-14T00:42:09;2.33;;;1.87;;
2956;SDS011;1488;51.548;7.222;2023-12-14T00:44:36;2.47;;;1.33;;
2956;SDS011;1488;51.548;7.222;2023-12-14T00:47:02;1.70;;;1.40;;
2956;SDS011;1488;51.548;7.222;2023-12-14T00:49:29;2.70;;;1.40;;
2956;SDS011;1488;51.548;7.222;2023-12-14T00:51:57;1.77;;;1.60;;
2956;SDS011;1488;51.548;7.222;2023-12-14T00:54:24;1.57;;;1.47;;
2956;SDS011;1488;51.548;7.222;2023-12-14T00:56:51;1.30;;;1.20;;
2956;SDS011;1488;51.548;7.222;2023-12-14T00:59:18;1.40;;;1.20;;
2956;SDS011;1488;51.548;7.222;2023-12-14T01:01:44;2.03;;;1.63;;
2956;SDS011;1488;51.548;7.222;2023-12-14T01:04:12;1.50;;;1.13;;
2956;SDS011;1488;51.548;7.222;2023-12-14T01:06:38;1.33;;;1.20;;
2956;SDS011;1488;51.548;7.222;2023-12-14T01:09:06;1.47;;;1.37;;
2956;SDS011;1488;51.548;7.222;2023-12-14T01:11:33;1.20;;;1.10;;
2956;SDS011;1488;51.548;7.222;2023-12-14T01:14:00;1.30;;;1.20;;
2956;SDS011;1488;51.548;7.222;2023-12-14T01:16:27;1.70;;;1.60;;
2956;SDS011;1488;51.548;7.222;2023-12-14T01:18:53;1.60;;;1.40;;
2956;SDS011;1488;51.548;7.222;2023-12-14T01:21:20;2.07;;;1.53;;
2956;SDS011;1488;51.548;7.222;2023-12-14T01:23:47;1.37;;;1.13;;
2956;SDS011;1488;51.548;7.222;2023-12-14T01:26:15;1.40;;;1.30;;
2956;SDS011;1488;51.548;7.222;2023-12-14T01:28:43;1.60;;;1.50;;
2956;SDS011;1488;51.548;7.222;2023-12-14T01:31:10;1.90;;;1.60;;
2956;SDS011;1488;51.548;7.222;2023-12-14T01:33:36;1.30;;;1.20;;
2956;SDS011;1488;51.548;7.222;2023-12-14T01:36:03;1.57;;;1.40;;
2956;SDS011;1488;51.548;7.222;2023-12-14T01:38:31;1.87;;;1.60;;
2956;SDS011;1488;51.548;7.222;2023-12-14T01:40:57;1.50;;;1.37;;
2956;SDS011;1488;51.548;7.222;2023-12-14T01:43:26;1.60;;;1.33;;
2956;SDS011;1488;51.548;7.222;2023-12-14T01:45:53;1.30;;;1.10;;
2956;SDS011;1488;51.548;7.222;2023-12-14T01:48:19;1.50;;;1.13;;
2956;SDS011;1488;51.548;7.222;2023-12-14T01:50:46;1.40;;;1.30;;
2956;SDS011;1488;51.548;7.222;2023-12-14T01:53:13;1.50;;;1.23;;
2956;SDS011;1488;51.548;7.222;2023-12-14T01:55:40;1.30;;;1.10;;
2956;SDS011;1488;51.548;7.222;2023-12-14T01:58:06;1.60;;;1.50;;
2956;SDS011;1488;51.548;7.222;2023-12-14T02:00:36;1.50;;;1.40;;
2956;SDS011;1488;51.548;7.222;2023-12-14T02:03:07;2.17;;;1.50;;
2956;SDS011;1488;51.548;7.222;2023-12-14T02:05:34;1.93;;;1.80;;
2956;SDS011;1488;51.548;7.222;2023-12-14T02:08:00;1.20;;;1.10;;
2956;SDS011;1488;51.548;7.222;2023-12-14T02:10:27;1.33;;;1.23;;
2956;SDS011;1488;51.548;7.222;2023-12-14T02:12:54;1.60;;;1.50;;
2956;SDS011;1488;51.548;7.222;2023-12-14T02:15:20;1.43;;;1.33;;
2956;SDS011;1488;51.548;7.222;2023-12-14T02:17:49;1.60;;;1.43;;
2956;SDS011;1488;51.548;7.222;2023-12-14T02:20:15;1.70;;;1.40;;
2956;SDS011;1488;51.548;7.222;2023-12-14T02:22:49;1.40;;;1.30;;
2956;SDS011;1488;51.548;7.222;2023-12-14T02:25:17;1.30;;;1.20;;
2956;SDS011;1488;51.548;7.222;2023-12-14T02:27:44;1.50;;;1.40;;
2956;SDS011;1488;51.548;7.222;2023-12-14T02:30:11;1.30;;;1.10;;
2956;SDS011;1488;51.548;7.222;2023-12-14T02:32:38;1.90;;;1.77;;
2956;SDS011;1488;51.548;7.222;2023-12-14T02:35:06;1.47;;;1.37;;
2956;SDS011;1488;51.548;7.222;2023-12-14T02:37:34;1.20;;;1.10;;
2956;SDS011;1488;51.548;7.222;2023-12-14T02:40:04;1.30;;;1.20;;
2956;SDS011;1488;51.548;7.222;2023-12-14T02:42:31;1.43;;;1.33;;
2956;SDS011;1488;51.548;7.222;2023-12-14T02:44:58;1.20;;;1.10;;
2956;SDS011;1488;51.548;7.222;2023-12-14T02:47:26;1.27;;;1.00;;
2956;SDS011;1488;51.548;7.222;2023-12-14T02:49:53;1.40;;;1.30;;
2956;SDS011;1488;51.548;7.222;2023-12-14T02:52:20;1.77;;;1.50;;
2956;SDS011;1488;51.548;7.222;2023-12-14T02:54:47;1.30;;;1.10;;
2956;SDS011;1488;51.548;7.222;2023-12-14T02:57:15;1.20;;;1.10;;
2956;SDS011;1488;51.548;7.222;2023-12-14T02:59:42;1.70;;;1.27;;
2956;SDS011;1488;51.548;7.222;2023-12-14T03:02:09;1.40;;;1.20;;
2956;SDS011;1488;51.548;7.222;2023-12-14T03:04:37;1.20;;;1.10;;
2956;SDS011;1488;51.548;7.222;2023-12-14T03:07:03;1.23;;;1.07;;
2956;SDS011;1488;51.548;7.222;2023-12-14T03:09:30;1.57;;;1.10;;
2956;SDS011;1488;51.548;7.222;2023-12-14T03:11:57;1.20;;;1.10;;
2956;SDS011;1488;51.548;7.222;2023-12-14T03:14:26;1.40;;;1.30;;
2956;SDS011;1488;51.548;7.222;2023-12-14T03:16:58;1.20;;;1.07;;
2956;SDS011;1488;51.548;7.222;2023-12-14T03:19:25;1.63;;;1.17;;
2956;SDS011;1488;51.548;7.222;2023-12-14T03:21:52;1.60;;;1.30;;
2956;SDS011;1488;51.548;7.222;2023-12-14T03:24:18;1.70;;;1.37;;
2956;SDS011;1488;51.548;7.222;2023-12-14T03:26:45;1.40;;;1.10;;
2956;SDS011;1488;51.548;7.222;2023-12-14T03:29:12;1.50;;;1.40;;
2956;SDS011;1488;51.548;7.222;2023-12-14T03:31:40;1.33;;;1.10;;
2956;SDS011;1488;51.548;7.222;2023-12-14T03:34:07;1.47;;;1.37;;
2956;SDS011;1488;51.548;7.222;2023-12-14T03:36:34;1.10;;;1.00;;
2956;SDS011;1488;51.548;7.222;2023-12-14T03:39:00;1.37;;;1.23;;
2956;SDS011;1488;51.548;7.222;2023-12-14T03:41:27;1.33;;;1.23;;
2956;SDS011;1488;51.548;7.222;2023-12-14T03:43:54;1.60;;;1.20;;
2956;SDS011;1488;51.548;7.222;2023-12-14T03:46:21;1.33;;;1.23;;
2956;SDS011;1488;51.548;7.222;2023-12-14T03:48:49;1.30;;;1.00;;
2956;SDS011;1488;51.548;7.222;2023-12-14T03:51:17;1.30;;;1.20;;
2956;SDS011;1488;51.548;7.222;2023-12-14T03:53:44;1.50;;;1.40;;
2956;SDS011;1488;51.548;7.222;2023-12-14T03:56:11;1.33;;;1.17;;
2956;SDS011;1488;51.548;7.222;2023-12-14T03:58:38;1.30;;;1.03;;
2956;SDS011;1488;51.548;7.222;2023-12-14T04:01:05;1.10;;;1.00;;
2956;SDS011;1488;51.548;7.222;2023-12-14T04:03:32;1.50;;;1.20;;
2956;SDS011;1488;51.548;7.222;2023-12-14T04:06:00;1.40;;;1.10;;
2956;SDS011;1488;51.548;7.222;2023-12-14T04:08:27;1.63;;;1.47;;
2956;SDS011;1488;51.548;7.222;2023-12-14T04:10:53;1.10;;;0.90;;
2956;SDS011;1488;51.548;7.222;2023-12-14T04:13:20;1.30;;;1.10;;
2956;SDS011;1488;51.548;7.222;2023-12-14T04:15:47;1.20;;;1.07;;
2956;SDS011;1488;51.548;7.222;2023-12-14T04:18:14;1.40;;;1.20;;
2956;SDS011;1488;51.548;7.222;2023-12-14T04:20:40;1.20;;;1.10;;
2956;SDS011;1488;51.548;7.222;2023-12-14T04:23:08;1.20;;;1.00;;
2956;SDS011;1488;51.548;7.222;2023-12-14T04:25:35;1.53;;;1.10;;
2956;SDS011;1488;51.548;7.222;2023-12-14T04:28:02;1.30;;;1.20;;
2956;SDS011;1488;51.548;7.222;2023-12-14T04:30:29;1.10;;;0.83;;
2956;SDS011;1488;51.548;7.222;2023-12-14T04:32:56;1.10;;;0.90;;
2956;SDS011;1488;51.548;7.222;2023-12-14T04:35:23;1.20;;;1.10;;
2956;SDS011;1488;51.548;7.222;2023-12-14T04:37:49;1.00;;;0.80;;
2956;SDS011;1488;51.548;7.222;2023-12-14T04:40:17;1.20;;;1.00;;
2956;SDS011;1488;51.548;7.222;2023-12-14T04:42:44;1.23;;;1.03;;
2956;SDS011;1488;51.548;7.222;2023-12-14T04:45:11;1.10;;;0.90;;
2956;SDS011;1488;51.548;7.222;2023-12-14T04:47:38;1.20;;;1.03;;
2956;SDS011;1488;51.548;7.222;2023-12-14T04:50:05;1.27;;;0.90;;
2956;SDS011;1488;51.548;7.222;2023-12-14T04:52:32;1.23;;;1.10;;
2956;SDS011;1488;51.548;7.222;2023-12-14T04:54:59;1.20;;;0.90;;
2956;SDS011;1488;51.548;7.222;2023-12-14T04:57:27;1.20;;;1.00;;
2956;SDS011;1488;51.548;7.222;2023-12-14T04:59:54;1.13;;;1.00;;
2956;SDS011;1488;51.548;7.222;2023-12-14T05:02:20;1.23;;;1.07;;
2956;SDS011;1488;51.548;7.222;2023-12-14T05:04:47;1.33;;;1.20;;
2956;SDS011;1488;51.548;7.222;2023-12-14T05:07:14;1.30;;;1.20;;
2956;SDS011;1488;51.548;7.222;2023-12-14T05:09:41;1.20;;;1.00;;
2956;SDS011;1488;51.548;7.222;2023-12-14T05:12:08;1.23;;;1.07;;
2956;SDS011;1488;51.548;7.222;2023-12-14T05:14:36;1.20;;;1.00;;
2956;SDS011;1488;51.548;7.222;2023-12-14T05:17:03;1.30;;;0.90;;
2956;SDS011;1488;51.548;7.222;2023-12-14T05:19:31;1.10;;;0.90;;
2956;SDS011;1488;51.548;7.222;2023-12-14T05:21:58;1.30;;;1.00;;
2956;SDS011;1488;51.548;7.222;2023-12-14T05:24:25;1.20;;;1.10;;
2956;SDS011;1488;51.548;7.222;2023-12-14T05:26:52;1.20;;;1.07;;
2956;SDS011;1488;51.548;7.222;2023-12-14T05:29:19;1.30;;;1.10;;
2956;SDS011;1488;51.548;7.222;2023-12-14T05:31:48;1.13;;;1.03;;
2956;SDS011;1488;51.548;7.222;2023-12-14T05:34:16;1.10;;;0.90;;
2956;SDS011;1488;51.548;7.222;2023-12-14T05:36:42;1.10;;;1.00;;
2956;SDS011;1488;51.548;7.222;2023-12-14T05:39:09;1.40;;;1.10;;
2956;SDS011;1488;51.548;7.222;2023-12-14T05:41:39;1.27;;;1.10;;
2956;SDS011;1488;51.548;7.222;2023-12-14T05:44:06;1.30;;;1.00;;
2956;SDS011;1488;51.548;7.222;2023-12-14T05:46:33;1.10;;;1.00;;
2956;SDS011;1488;51.548;7.222;2023-12-14T05:49:02;1.20;;;1.00;;
2956;SDS011;1488;51.548;7.222;2023-12-14T05:51:29;1.17;;;0.93;;
2956;SDS011;1488;51.548;7.222;2023-12-14T05:53:56;1.10;;;1.00;;
2956;SDS011;1488;51.548;7.222;2023-12-14T05:56:24;1.10;;;0.90;;
2956;SDS011;1488;51.548;7.222;2023-12-14T05:58:51;1.20;;;1.00;;
2956;SDS011;1488;51.548;7.222;2023-12-14T06:01:18;1.20;;;1.07;;
2956;SDS011;1488;51.548;7.222;2023-12-14T06:03:44;1.67;;;1.30;;
2956;SDS011;1488;51.548;7.222;2023-12-14T06:06:13;1.10;;;1.00;;
2956;SDS011;1488;51.548;7.222;2023-12-14T06:08:40;1.10;;;0.80;;
2956;SDS011;1488;51.548;7.222;2023-12-14T06:11:07;1.20;;;1.03;;
2956;SDS011;1488;51.548;7.222;2023-12-14T06:13:34;1.20;;;0.90;;
2956;SDS011;1488;51.548;7.222;2023-12-14T06:16:01;1.50;;;1.13;;
2956;SDS011;1488;51.548;7.222;2023-12-14T06:18:28;1.40;;;1.30;;
2956;SDS011;1488;51.548;7.222;2023-12-14T06:20:55;1.30;;;1.17;;
2956;SDS011;1488;51.548;7.222;2023-12-14T06:23:23;1.10;;;0.90;;
2956;SDS011;1488;51.548;7.222;2023-12-14T06:25:52;1.27;;;1.17;;
2956;SDS011;1488;51.548;7.222;2023-12-14T06:28:18;1.10;;;1.00;;
2956;SDS011;1488;51.548;7.222;2023-12-14T06:30:46;1.40;;;1.20;;
2956;SDS011;1488;51.548;7.222;2023-12-14T06:33:13;1.00;;;0.80;;
2956;SDS011;1488;51.548;7.222;2023-12-14T06:35:40;2.80;;;1.00;;
2956;SDS011;1488;51.548;7.222;2023-12-14T06:38:07;1.10;;;1.00;;
2956;SDS011;1488;51.548;7.222;2023-12-14T06:40:35;1.10;;;0.93;;
2956;SDS011;1488;51.548;7.222;2023-12-14T06:43:03;2.50;;;1.07;;
2956;SDS011;1488;51.548;7.222;2023-12-14T06:45:30;1.10;;;1.00;;
2956;SDS011;1488;51.548;7.222;2023-12-14T06:47:57;1.20;;;1.00;;
2956;SDS011;1488;51.548;7.222;2023-12-14T06:50:23;1.27;;;1.17;;
2956;SDS011;1488;51.548;7.222;2023-12-14T06:52:52;1.13;;;0.83;;
2956;SDS011;1488;51.548;7.222;2023-12-14T06:55:18;2.40;;;2.20;;
2956;SDS011;1488;51.548;7.222;2023-12-14T06:57:46;1.57;;;1.10;;
2956;SDS011;1488;51.548;7.222;2023-12-14T07:00:14;1.30;;;1.03;;
2956;SDS011;1488;51.548;7.222;2023-12-14T07:02:43;1.30;;;1.10;;
2956;SDS011;1488;51.548;7.222;2023-12-14T07:05:10;1.17;;;0.97;;
2956;SDS011;1488;51.548;7.222;2023-12-14T07:07:37;1.47;;;1.30;;
2956;SDS011;1488;51.548;7.222;2023-12-14T07:10:04;1.17;;;0.87;;
2956;SDS011;1488;51.548;7.222;2023-12-14T07:12:31;1.40;;;1.30;;
2956;SDS011;1488;51.548;7.222;2023-12-14T07:14:59;1.20;;;1.10;;
2956;SDS011;1488;51.548;7.222;2023-12-14T07:17:26;1.50;;;1.23;;
2956;SDS011;1488;51.548;7.222;2023-12-14T07:19:53;1.80;;;1.23;;
2956;SDS011;1488;51.548;7.222;2023-12-14T07:22:19;1.67;;;1.00;;
2956;SDS011;1488;51.548;7.222;2023-12-14T07:24:46;1.67;;;1.00;;
2956;SDS011;1488;51.548;7.222;2023-12-14T07:27:13;1.60;;;1.10;;
2956;SDS011;1488;51.548;7.222;2023-12-14T07:29:40;1.30;;;1.10;;
2956;SDS011;1488;51.548;7.222;2023-12-14T07:32:08;4.20;;;1.00;;
2956;SDS011;1488;51.548;7.222;2023-12-14T07:34:34;1.40;;;1.30;;
2956;SDS011;1488;51.548;7.222;2023-12-14T07:37:01;1.63;;;0.97;;
2956;SDS011;1488;51.548;7.222;2023-12-14T07:39:28;1.20;;;1.00;;
2956;SDS011;1488;51.548;7.222;2023-12-14T07:41:55;1.13;;;1.03;;
2956;SDS011;1488;51.548;7.222;2023-12-14T07:44:22;1.73;;;1.10;;
2956;SDS011;1488;51.548;7.222;2023-12-14T07:46:50;1.47;;;1.37;;
2956;SDS011;1488;51.548;7.222;2023-12-14T07:49:18;1.43;;;1.10;;
2956;SDS011;1488;51.548;7.222;2023-12-14T07:51:45;1.30;;;1.20;;
2956;SDS011;1488;51.548;7.222;2023-12-14T07:54:12;1.40;;;1.00;;
2956;SDS011;1488;51.548;7.222;2023-12-14T07:56:40;3.83;;;1.07;;
2956;SDS011;1488;51.548;7.222;2023-12-14T07:59:06;10.10;;;1.20;;
2956;SDS011;1488;51.548;7.222;2023-12-14T08:01:34;2.47;;;1.10;;
2956;SDS011;1488;51.548;7.222;2023-12-14T08:04:01;2.07;;;1.00;;
2956;SDS011;1488;51.548;7.222;2023-12-14T08:06:30;1.73;;;1.20;;
2956;SDS011;1488;51.548;7.222;2023-12-14T08:08:57;1.20;;;1.00;;
2956;SDS011;1488;51.548;7.222;2023-12-14T08:11:24;1.33;;;1.23;;
2956;SDS011;1488;51.548;7.222;2023-12-14T08:13:50;2.70;;;0.90;;
2956;SDS011;1488;51.548;7.222;2023-12-14T08:16:17;1.00;;;0.80;;
2956;SDS011;1488;51.548;7.222;2023-12-14T08:18:44;1.30;;;1.10;;
2956;SDS011;1488;51.548;7.222;2023-12-14T08:21:13;1.10;;;1.00;;
2956;SDS011;1488;51.548;7.222;2023-12-14T08:23:41;2.23;;;1.10;;
2956;SDS011;1488;51.548;7.222;2023-12-14T08:26:08;1.33;;;1.03;;
2956;SDS011;1488;51.548;7.222;2023-12-14T08:28:37;3.30;;;1.20;;
2956;SDS011;1488;51.548;7.222;2023-12-14T08:31:04;1.57;;;1.33;;
2956;SDS011;1488;51.548;7.222;2023-12-14T08:33:31;1.83;;;0.90;;
2956;SDS011;1488;51.548;7.222;2023-12-14T08:35:58;1.30;;;1.20;;
2956;SDS011;1488;51.548;7.222;2023-12-14T08:38:25;1.60;;;1.20;;
2956;SDS011;1488;51.548;7.222;2023-12-14T08:40:53;2.00;;;1.20;;
2956;SDS011;1488;51.548;7.222;2023-12-14T08:43:20;3.93;;;1.20;;
2956;SDS011;1488;51.548;7.222;2023-12-14T08:45:47;3.10;;;1.50;;
2956;SDS011;1488;51.548;7.222;2023-12-14T08:48:14;1.77;;;1.10;;
2956;SDS011;1488;51.548;7.222;2023-12-14T08:50:41;3.23;;;1.27;;
2956;SDS011;1488;51.548;7.222;2023-12-14T08:53:08;3.67;;;3.37;;
2956;SDS011;1488;51.548;7.222;2023-12-14T08:55:35;3.00;;;2.80;;
2956;SDS011;1488;51.548;7.222;2023-12-14T08:58:03;2.03;;;1.90;;
2956;SDS011;1488;51.548;7.222;2023-12-14T09:00:29;2.07;;;1.43;;
2956;SDS011;1488;51.548;7.222;2023-12-14T09:02:56;1.63;;;1.40;;
2956;SDS011;1488;51.548;7.222;2023-12-14T09:05:23;3.03;;;1.30;;
2956;SDS011;1488;51.548;7.222;2023-12-14T09:07:51;6.20;;;1.60;;
2956;SDS011;1488;51.548;7.222;2023-12-14T09:10:21;1.47;;;1.27;;
2956;SDS011;1488;51.548;7.222;2023-12-14T09:12:48;2.80;;;1.47;;
2956;SDS011;1488;51.548;7.222;2023-12-14T09:15:16;1.40;;;1.17;;
2956;SDS011;1488;51.548;7.222;2023-12-14T09:17:43;1.47;;;1.10;;
2956;SDS011;1488;51.548;7.222;2023-12-14T09:20:10;2.50;;;1.93;;
2956;SDS011;1488;51.548;7.222;2023-12-14T09:22:37;2.70;;;1.30;;
2956;SDS011;1488;51.548;7.222;2023-12-14T09:25:05;3.90;;;1.90;;
2956;SDS011;1488;51.548;7.222;2023-12-14T09:27:34;1.40;;;1.10;;
2956;SDS011;1488;51.548;7.222;2023-12-14T09:30:01;1.20;;;1.03;;
2956;SDS011;1488;51.548;7.222;2023-12-14T09:32:30;2.23;;;1.40;;
2956;SDS011;1488;51.548;7.222;2023-12-14T09:34:57;1.60;;;1.17;;
2956;SDS011;1488;51.548;7.222;2023-12-14T09:37:24;2.77;;;1.43;;
2956;SDS011;1488;51.548;7.222;2023-12-14T09:39:51;2.53;;;1.60;;
2956;SDS011;1488;51.548;7.222;2023-12-14T09:42:19;4.33;;;3.03;;
2956;SDS011;1488;51.548;7.222;2023-12-14T09:44:47;2.53;;;1.60;;
2956;SDS011;1488;51.548;7.222;2023-12-14T09:47:14;2.47;;;1.03;;
2956;SDS011;1488;51.548;7.222;2023-12-14T09:49:43;1.40;;;1.20;;
2956;SDS011;1488;51.548;7.222;2023-12-14T09:52:11;3.20;;;1.40;;
2956;SDS011;1488;51.548;7.222;2023-12-14T09:54:39;1.87;;;1.40;;
2956;SDS011;1488;51.548;7.222;2023-12-14T09:57:12;3.50;;;2.67;;
2956;SDS011;1488;51.548;7.222;2023-12-14T09:59:50;1.83;;;1.67;;
2956;SDS011;1488;51.548;7.222;2023-12-14T10:02:17;4.40;;;1.63;;
2956;SDS011;1488;51.548;7.222;2023-12-14T10:04:46;4.80;;;1.93;;
2956;SDS011;1488;51.548;7.222;2023-12-14T10:07:13;3.97;;;1.70;;
2956;SDS011;1488;51.548;7.222;2023-12-14T10:09:41;2.30;;;1.43;;
2956;SDS011;1488;51.548;7.222;2023-12-14T10:12:09;3.90;;;1.83;;
2956;SDS011;1488;51.548;7.222;2023-12-14T10:14:36;10.83;;;1.87;;
2956;SDS011;1488;51.548;7.222;2023-12-14T10:17:13;2.23;;;1.40;;
2956;SDS011;1488;51.548;7.222;2023-12-14T10:19:42;2.33;;;1.50;;
2956;SDS011;1488;51.548;7.222;2023-12-14T10:22:11;4.03;;;2.03;;
2956;SDS011;1488;51.548;7.222;2023-12-14T10:24:42;6.20;;;2.00;;
2956;SDS011;1488;51.548;7.222;2023-12-14T10:27:09;3.90;;;1.50;;
2956;SDS011;1488;51.548;7.222;2023-12-14T10:29:36;5.67;;;1.83;;
2956;SDS011;1488;51.548;7.222;2023-12-14T10:32:04;2.53;;;1.93;;
2956;SDS011;1488;51.548;7.222;2023-12-14T10:34:31;2.47;;;1.50;;
2956;SDS011;1488;51.548;7.222;2023-12-14T10:36:59;2.70;;;1.87;;
2956;SDS011;1488;51.548;7.222;2023-12-14T10:39:27;2.27;;;1.70;;
2956;SDS011;1488;51.548;7.222;2023-12-14T10:41:55;3.00;;;1.63;;
2956;SDS011;1488;51.548;7.222;2023-12-14T10:44:25;2.77;;;1.87;;
2956;SDS011;1488;51.548;7.222;2023-12-14T10:46:54;1.70;;;1.53;;
2956;SDS011;1488;51.548;7.222;2023-12-14T10:49:22;2.93;;;1.70;;
2956;SDS011;1488;51.548;7.222;2023-12-14T10:51:50;1.90;;;1.70;;
2956;SDS011;1488;51.548;7.222;2023-12-14T10:54:19;2.40;;;1.83;;
2956;SDS011;1488;51.548;7.222;2023-12-14T10:56:48;2.80;;;1.93;;
2956;SDS011;1488;51.548;7.222;2023-12-14T10:59:15;1.60;;;1.50;;
2956;SDS011;1488;51.548;7.222;2023-12-14T11:01:42;1.80;;;1.50;;
2956;SDS011;1488;51.548;7.222;2023-12-14T11:04:10;2.80;;;1.77;;
2956;SDS011;1488;51.548;7.222;2023-12-14T11:06:39;1.33;;;1.23;;
2956;SDS011;1488;51.548;7.222;2023-12-14T11:09:12;2.70;;;1.33;;
2956;SDS011;1488;51.548;7.222;2023-12-14T11:11:40;2.23;;;1.87;;
2956;SDS011;1488;51.548;7.222;2023-12-14T11:14:11;1.97;;;1.70;;
2956;SDS011;1488;51.548;7.222;2023-12-14T11:16:38;1.60;;;1.50;;
2956;SDS011;1488;51.548;7.222;2023-12-14T11:19:24;3.60;;;2.20;;
2956;SDS011;1488;51.548;7.222;2023-12-14T11:24:50;2.57;;;1.90;;
2956;SDS011;1488;51.548;7.222;2023-12-14T11:27:19;2.60;;;2.50;;
2956;SDS011;1488;51.548;7.222;2023-12-14T11:29:52;3.10;;;2.90;;
2956;SDS011;1488;51.548;7.222;2023-12-14T11:32:19;3.37;;;3.10;;
2956;SDS011;1488;51.548;7.222;2023-12-14T11:34:46;3.10;;;2.90;;
2956;SDS011;1488;51.548;7.222;2023-12-14T11:37:13;3.10;;;2.90;;
2956;SDS011;1488;51.548;7.222;2023-12-14T11:39:40;3.33;;;3.13;;
2956;SDS011;1488;51.548;7.222;2023-12-14T11:42:09;3.33;;;3.13;;
2956;SDS011;1488;51.548;7.222;2023-12-14T11:44:36;4.03;;;3.63;;
2956;SDS011;1488;51.548;7.222;2023-12-14T11:47:04;3.87;;;3.47;;
2956;SDS011;1488;51.548;7.222;2023-12-14T11:49:31;4.30;;;3.90;;
2956;SDS011;1488;51.548;7.222;2023-12-14T11:52:01;4.13;;;3.73;;
2956;SDS011;1488;51.548;7.222;2023-12-14T11:54:30;3.67;;;3.37;;
2956;SDS011;1488;51.548;7.222;2023-12-14T11:56:56;3.83;;;3.53;;
2956;SDS011;1488;51.548;7.222;2023-12-14T11:59:23;3.50;;;3.20;;
2956;SDS011;1488;51.548;7.222;2023-12-14T12:01:55;3.07;;;2.87;;
2956;SDS011;1488;51.548;7.222;2023-12-14T12:04:24;3.87;;;3.47;;
2956;SDS011;1488;51.548;7.222;2023-12-14T12:06:58;3.27;;;3.07;;
2956;SDS011;1488;51.548;7.222;2023-12-14T12:09:36;3.33;;;3.13;;
2956;SDS011;1488;51.548;7.222;2023-12-14T12:12:07;3.80;;;3.50;;
2956;SDS011;1488;51.548;7.222;2023-12-14T12:14:35;3.40;;;3.10;;
2956;SDS011;1488;51.548;7.222;2023-12-14T12:17:03;3.27;;;2.90;;
2956;SDS011;1488;51.548;7.222;2023-12-14T12:19:32;2.80;;;2.60;;
2956;SDS011;1488;51.548;7.222;2023-12-14T12:21:59;3.20;;;3.00;;
2956;SDS011;1488;51.548;7.222;2023-12-14T12:24:26;3.53;;;3.27;;
2956;SDS011;1488;51.548;7.222;2023-12-14T12:26:53;5.83;;;3.13;;
2956;SDS011;1488;51.548;7.222;2023-12-14T12:29:20;6.20;;;3.70;;
2956;SDS011;1488;51.548;7.222;2023-12-14T12:31:47;3.40;;;3.20;;
2956;SDS011;1488;51.548;7.222;2023-12-14T13:01:45;5.30;;;3.43;;
2956;SDS011;1488;51.548;7.222;2023-12-14T13:04:18;4.07;;;3.57;;
2956;SDS011;1488;51.548;7.222;2023-12-14T13:06:46;4.87;;;3.03;;
2956;SDS011;1488;51.548;7.222;2023-12-14T13:09:13;5.73;;;3.27;;
2956;SDS011;1488;51.548;7.222;2023-12-14T13:11:41;3.87;;;3.40;;
2956;SDS011;1488;51.548;7.222;2023-12-14T13:14:08;8.30;;;2.63;;
2956;SDS011;1488;51.548;7.222;2023-12-14T13:16:35;2.93;;;2.60;;
2956;SDS011;1488;51.548;7.222;2023-12-14T13:19:03;7.77;;;2.97;;
2956;SDS011;1488;51.548;7.222;2023-12-14T13:21:31;3.80;;;3.07;;
2956;SDS011;1488;51.548;7.222;2023-12-14T13:23:59;8.20;;;4.33;;
2956;SDS011;1488;51.548;7.222;2023-12-14T13:26:26;5.57;;;3.20;;
2956;SDS011;1488;51.548;7.222;2023-12-14T13:28:53;3.70;;;3.50;;
2956;SDS011;1488;51.548;7.222;2023-12-14T13:31:20;3.60;;;3.00;;
2956;SDS011;1488;51.548;7.222;2023-12-14T13:33:47;3.90;;;2.63;;
2956;SDS011;1488;51.548;7.222;2023-12-14T13:36:16;3.00;;;2.80;;
2956;SDS011;1488;51.548;7.222;2023-12-14T13:38:44;3.57;;;3.20;;
2956;SDS011;1488;51.548;7.222;2023-12-14T13:41:12;3.70;;;3.10;;
2956;SDS011;1488;51.548;7.222;2023-12-14T13:43:38;4.90;;;2.73;;
2956;SDS011;1488;51.548;7.222;2023-12-14T13:46:05;3.00;;;2.70;;
2956;SDS011;1488;51.548;7.222;2023-12-14T13:48:32;5.60;;;2.87;;
2956;SDS011;1488;51.548;7.222;2023-12-14T13:50:59;2.50;;;2.30;;
2956;SDS011;1488;51.548;7.222;2023-12-14T13:53:27;3.80;;;3.17;;
2956;SDS011;1488;51.548;7.222;2023-12-14T13:55:54;3.80;;;2.70;;
2956;SDS011;1488;51.548;7.222;2023-12-14T13:58:20;3.60;;;2.67;;
2956;SDS011;1488;51.548;7.222;2023-12-14T14:00:47;3.73;;;2.30;;
2956;SDS011;1488;51.548;7.222;2023-12-14T14:03:14;2.93;;;2.73;;
2956;SDS011;1488;51.548;7.222;2023-12-14T14:05:41;2.93;;;2.53;;
2956;SDS011;1488;51.548;7.222;2023-12-14T14:08:09;2.00;;;1.90;;
2956;SDS011;1488;51.548;7.222;2023-12-14T14:10:37;2.50;;;2.30;;
2956;SDS011;1488;51.548;7.222;2023-12-14T14:13:04;5.00;;;2.40;;
2956;SDS011;1488;51.548;7.222;2023-12-14T14:15:31;2.57;;;2.37;;
2956;SDS011;1488;51.548;7.222;2023-12-14T14:17:58;3.33;;;2.30;;
2956;SDS011;1488;51.548;7.222;2023-12-14T14:20:25;2.80;;;2.60;;
2956;SDS011;1488;51.548;7.222;2023-12-14T14:22:52;2.77;;;2.50;;
2956;SDS011;1488;51.548;7.222;2023-12-14T14:25:19;1.90;;;1.70;;
2956;SDS011;1488;51.548;7.222;2023-12-14T14:27:47;2.70;;;2.50;;
2956;SDS011;1488;51.548;7.222;2023-12-14T14:30:14;3.80;;;1.90;;
2956;SDS011;1488;51.548;7.222;2023-12-14T14:32:42;3.60;;;3.07;;
2956;SDS011;1488;51.548;7.222;2023-12-14T14:35:08;2.90;;;2.37;;
2956;SDS011;1488;51.548;7.222;2023-12-14T14:37:35;2.70;;;2.50;;
2956;SDS011;1488;51.548;7.222;2023-12-14T14:40:03;2.50;;;2.30;;
2956;SDS011;1488;51.548;7.222;2023-12-14T14:42:30;7.97;;;2.83;;
2956;SDS011;1488;51.548;7.222;2023-12-14T14:44:59;2.70;;;2.00;;
2956;SDS011;1488;51.548;7.222;2023-12-14T14:47:26;2.63;;;2.40;;
2956;SDS011;1488;51.548;7.222;2023-12-14T14:49:53;2.27;;;2.07;;
2956;SDS011;1488;51.548;7.222;2023-12-14T14:52:22;2.57;;;2.37;;
2956;SDS011;1488;51.548;7.222;2023-12-14T14:54:49;2.20;;;2.00;;
2956;SDS011;1488;51.548;7.222;2023-12-14T14:57:16;3.20;;;2.70;;
2956;SDS011;1488;51.548;7.222;2023-12-14T14:59:43;5.00;;;2.27;;
2956;SDS011;1488;51.548;7.222;2023-12-14T15:02:11;3.57;;;2.13;;
2956;SDS011;1488;51.548;7.222;2023-12-14T15:04:37;2.87;;;2.60;;
2956;SDS011;1488;51.548;7.222;2023-12-14T15:07:04;3.27;;;2.27;;
2956;SDS011;1488;51.548;7.222;2023-12-14T15:09:31;2.80;;;2.13;;
2956;SDS011;1488;51.548;7.222;2023-12-14T15:11:58;2.43;;;2.20;;
2956;SDS011;1488;51.548;7.222;2023-12-14T15:14:25;4.13;;;2.50;;
2956;SDS011;1488;51.548;7.222;2023-12-14T15:16:52;3.47;;;1.83;;
2956;SDS011;1488;51.548;7.222;2023-12-14T15:19:20;4.97;;;2.37;;
2956;SDS011;1488;51.548;7.222;2023-12-14T15:21:47;2.20;;;1.93;;
2956;SDS011;1488;51.548;7.222;2023-12-14T15:24:14;3.20;;;2.30;;
2956;SDS011;1488;51.548;7.222;2023-12-14T15:26:41;2.57;;;2.37;;
2956;SDS011;1488;51.548;7.222;2023-12-14T15:29:07;2.10;;;2.00;;
2956;SDS011;1488;51.548;7.222;2023-12-14T15:31:34;2.40;;;2.20;;
2956;SDS011;1488;51.548;7.222;2023-12-14T15:34:01;3.10;;;2.23;;
2956;SDS011;1488;51.548;7.222;2023-12-14T15:36:30;2.10;;;1.90;;
2956;SDS011;1488;51.548;7.222;2023-12-14T15:38:58;2.10;;;1.90;;
2956;SDS011;1488;51.548;7.222;2023-12-14T15:41:25;2.00;;;1.90;;
2956;SDS011;1488;51.548;7.222;2023-12-14T15:43:52;2.27;;;1.93;;
2956;SDS011;1488;51.548;7.222;2023-12-14T15:46:19;2.83;;;2.63;;